createdAt,value
2019-02-11T00:01:35.646Z,75.10
2019-02-11T00:04:05.059Z,76.10
2019-02-11T00:06:34.518Z,75.60
2019-02-11T00:09:05.758Z,75.40
2019-02-11T00:11:35.191Z,75.50
2019-02-11T00:14:04.611Z,75.50
2019-02-11T00:16:34.044Z,75.50
2019-02-11T00:19:03.535Z,75.40
2019-02-11T00:21:32.975Z,75.70
2019-02-11T00:24:02.417Z,75.70
2019-02-11T00:26:31.850Z,75.70
2019-02-11T00:29:01.267Z,75.80
2019-02-11T00:31:30.794Z,75.90
2019-02-11T00:34:00.306Z,76.00
2019-02-11T00:36:29.830Z,76.30
2019-02-11T00:38:59.250Z,76.30
2019-02-11T00:41:28.688Z,76.30
2019-02-11T00:43:58.109Z,76.20
2019-02-11T00:46:27.597Z,76.40
2019-02-11T00:48:56.977Z,76.40
2019-02-11T00:51:26.415Z,76.30
2019-02-11T00:53:55.847Z,76.60
2019-02-11T00:56:25.294Z,76.60
2019-02-11T00:58:54.714Z,76.70
2019-02-11T01:01:24.148Z,76.80
2019-02-11T01:03:53.574Z,76.70
2019-02-11T01:06:23.022Z,76.70
2019-02-11T01:08:52.445Z,76.90
2019-02-11T01:11:21.895Z,77.00
2019-02-11T01:13:51.700Z,77.10
2019-02-11T01:16:21.118Z,76.90
2019-02-11T01:18:50.544Z,77.20
2019-02-11T01:21:19.989Z,76.90
2019-02-11T01:23:49.412Z,76.80
2019-02-11T01:26:18.848Z,77.00
2019-02-11T01:28:48.294Z,77.00
2019-02-11T01:31:17.725Z,77.20
2019-02-11T01:33:47.168Z,77.10
2019-02-11T01:36:16.615Z,77.10
2019-02-11T01:38:46.020Z,77.10
2019-02-11T01:41:15.456Z,77.20
2019-02-11T01:43:44.873Z,77.20
2019-02-11T01:46:14.349Z,76.80
2019-02-11T01:48:43.775Z,76.90
2019-02-11T01:51:13.237Z,76.80
2019-02-11T01:53:42.661Z,77.00
2019-02-11T01:56:12.108Z,77.50
2019-02-11T01:58:41.528Z,78.00
2019-02-11T02:01:11.056Z,78.40
2019-02-11T02:03:40.478Z,78.80
2019-02-11T02:06:09.931Z,79.00
2019-02-11T02:08:39.355Z,78.90
2019-02-11T02:11:08.785Z,78.40
2019-02-11T02:13:44.658Z,78.00
2019-02-11T02:16:09.361Z,78.00
2019-02-11T02:18:38.784Z,77.80
2019-02-11T02:21:08.232Z,77.50
2019-02-11T02:23:37.648Z,77.50
2019-02-11T02:26:07.252Z,77.50
2019-02-11T02:28:36.652Z,77.90
2019-02-11T02:31:06.149Z,77.70
2019-02-11T02:33:35.569Z,77.40
2019-02-11T02:36:05.012Z,77.70
2019-02-11T02:38:34.433Z,77.70
2019-02-11T02:41:03.883Z,78.00
2019-02-11T02:43:33.504Z,77.90
2019-02-11T02:46:02.927Z,78.00
2019-02-11T02:48:32.347Z,77.90
2019-02-11T02:51:01.791Z,77.60
2019-02-11T02:53:31.205Z,78.10
2019-02-11T02:56:00.644Z,78.70
2019-02-11T02:58:30.068Z,79.90
2019-02-11T03:00:59.517Z,80.20
2019-02-11T03:03:28.962Z,81.00
2019-02-11T03:05:58.379Z,81.50
2019-02-11T03:08:27.815Z,81.70
2019-02-11T03:10:57.234Z,81.90
2019-02-11T03:13:26.700Z,82.00
2019-02-11T03:15:56.123Z,82.10
2019-02-11T03:18:25.556Z,82.60
2019-02-11T03:20:54.977Z,83.10
2019-02-11T03:23:24.413Z,83.60
2019-02-11T03:25:53.826Z,84.80
2019-02-11T03:28:23.252Z,85.30
2019-02-11T03:30:52.675Z,85.40
2019-02-11T03:33:22.097Z,85.50
2019-02-11T03:35:51.546Z,85.60
2019-02-11T03:38:20.972Z,85.60
2019-02-11T03:40:50.424Z,86.00
2019-02-11T03:43:19.846Z,85.40
2019-02-11T03:45:49.287Z,85.50
2019-02-11T03:48:18.726Z,84.50
2019-02-11T03:50:48.158Z,83.80
2019-02-11T03:53:17.586Z,83.20
2019-02-11T03:55:47.028Z,82.80
2019-02-11T03:58:17.366Z,83.00
2019-02-11T04:00:46.799Z,82.80
2019-02-11T04:03:16.246Z,82.50
2019-02-11T04:05:45.666Z,81.60
2019-02-11T04:08:15.114Z,81.70
2019-02-11T04:10:44.529Z,82.00
2019-02-11T04:13:13.985Z,81.90
2019-02-11T04:15:43.477Z,82.00
2019-02-11T04:18:12.921Z,82.00
2019-02-11T04:20:42.338Z,81.70
2019-02-11T04:23:11.801Z,81.80
2019-02-11T04:25:41.212Z,82.10
2019-02-11T04:28:10.656Z,82.20
2019-02-11T04:30:40.075Z,82.00
2019-02-11T04:33:09.528Z,81.80
2019-02-11T04:35:39.051Z,81.30
2019-02-11T04:38:08.531Z,81.50
2019-02-11T04:40:37.961Z,82.10
2019-02-11T04:43:07.414Z,81.10
2019-02-11T04:45:36.846Z,80.60
2019-02-11T04:48:06.294Z,80.80
2019-02-11T04:50:35.718Z,80.80
2019-02-11T04:53:05.165Z,80.50
2019-02-11T04:55:34.617Z,80.40
2019-02-11T04:58:04.062Z,80.80
2019-02-11T05:00:33.488Z,80.60
2019-02-11T05:03:02.947Z,80.70
2019-02-11T05:05:32.355Z,80.50
2019-02-11T05:08:01.774Z,80.80
2019-02-11T05:10:31.210Z,80.80
2019-02-11T05:13:00.634Z,80.70
2019-02-11T05:15:30.086Z,80.80
2019-02-11T05:17:59.511Z,81.20
2019-02-11T05:20:28.967Z,81.30
2019-02-11T05:22:58.408Z,80.80
2019-02-11T05:25:27.849Z,80.90
2019-02-11T05:27:57.284Z,80.80
2019-02-11T05:30:26.812Z,80.60
2019-02-11T05:32:56.239Z,80.90
2019-02-11T05:35:25.673Z,81.50
2019-02-11T05:37:55.113Z,82.40
2019-02-11T05:40:24.549Z,83.50
2019-02-11T05:42:53.982Z,84.50
2019-02-11T05:45:23.426Z,85.80
2019-02-11T05:47:52.845Z,87.00
2019-02-11T05:50:22.294Z,88.00
2019-02-11T05:52:51.719Z,88.60
2019-02-11T05:55:21.171Z,89.60
2019-02-11T05:57:50.598Z,90.20
2019-02-11T06:00:20.114Z,90.70
2019-02-11T06:02:49.550Z,91.00
2019-02-11T06:05:18.993Z,91.30
2019-02-11T06:07:48.413Z,91.50
2019-02-11T06:10:17.963Z,91.80
2019-02-11T06:12:47.387Z,92.00
2019-02-11T06:15:16.845Z,92.60
2019-02-11T06:17:46.262Z,92.30
2019-02-11T06:20:15.724Z,92.60
2019-02-11T06:22:45.152Z,92.80
2019-02-11T06:25:14.615Z,92.70
2019-02-11T06:27:44.048Z,92.90
2019-02-11T06:30:14.547Z,92.80
2019-02-11T06:32:43.972Z,93.20
2019-02-11T06:35:13.419Z,93.30
2019-02-11T06:37:42.847Z,93.40
2019-02-11T06:40:12.484Z,93.50
2019-02-11T06:42:41.895Z,93.50
2019-02-11T06:45:13.473Z,93.60
2019-02-11T06:47:43.049Z,93.50
2019-02-11T06:50:16.058Z,93.50
2019-02-11T06:52:45.483Z,93.40
2019-02-11T06:55:14.949Z,93.50
2019-02-11T06:57:44.380Z,93.50
2019-02-11T07:00:15.846Z,93.60
2019-02-11T07:02:45.267Z,93.50
2019-02-11T07:05:14.736Z,93.40
2019-02-11T07:07:44.150Z,93.50
2019-02-11T07:10:13.699Z,93.30
2019-02-11T07:12:43.126Z,93.40
2019-02-11T07:15:21.473Z,93.20
2019-02-11T07:17:45.820Z,93.20
2019-02-11T07:20:15.262Z,93.90
2019-02-11T07:22:44.685Z,93.40
2019-02-11T07:25:14.252Z,93.50
2019-02-11T07:27:43.693Z,93.40
2019-02-11T07:30:14.560Z,93.60
2019-02-11T07:32:43.987Z,93.40
2019-02-11T07:35:13.703Z,93.50
2019-02-11T07:37:43.131Z,93.40
2019-02-11T07:40:13.269Z,93.50
2019-02-11T07:42:49.755Z,93.40
2019-02-11T07:45:20.848Z,93.60
2019-02-11T07:47:50.274Z,93.80
2019-02-11T07:50:19.949Z,94.00
2019-02-11T07:52:49.378Z,94.00
2019-02-11T07:55:18.821Z,93.50
2019-02-11T07:57:48.245Z,93.40
2019-02-11T08:00:17.966Z,93.10
2019-02-11T08:02:47.386Z,93.00
2019-02-11T08:05:16.999Z,92.80
2019-02-11T08:07:46.421Z,92.80
2019-02-11T08:10:15.925Z,92.70
2019-02-11T08:12:45.350Z,92.60
2019-02-11T08:15:14.778Z,92.60
2019-02-11T08:17:44.307Z,92.50
2019-02-11T08:20:13.800Z,92.50
2019-02-11T08:22:43.715Z,92.90
2019-02-11T08:25:13.136Z,92.80
2019-02-11T08:27:42.581Z,92.70
2019-02-11T08:30:12.568Z,92.70
2019-02-11T08:32:42.002Z,92.70
2019-02-11T08:35:11.439Z,92.60
2019-02-11T08:37:40.869Z,92.80
2019-02-11T08:40:10.975Z,92.50
2019-02-11T08:42:40.400Z,92.50
2019-02-11T08:45:11.272Z,92.50
2019-02-11T08:47:40.694Z,92.50
2019-02-11T08:50:10.858Z,92.50
2019-02-11T08:52:40.277Z,92.50
2019-02-11T08:55:09.965Z,92.70
2019-02-11T08:57:39.396Z,92.30
2019-02-11T09:00:11.433Z,93.00
2019-02-11T09:02:41.295Z,92.40
2019-02-11T09:05:10.740Z,92.40
2019-02-11T09:07:40.155Z,92.30
2019-02-11T09:10:12.107Z,92.20
2019-02-11T09:12:41.530Z,92.20
2019-02-11T09:15:12.932Z,91.90
2019-02-11T09:17:42.331Z,91.90
2019-02-11T09:20:12.370Z,92.10
2019-02-11T09:22:41.830Z,92.20
2019-02-11T09:25:11.742Z,92.10
2019-02-11T09:27:41.160Z,92.10
2019-02-11T09:30:16.694Z,92.10
2019-02-11T09:32:46.109Z,92.30
2019-02-11T09:35:15.554Z,92.20
2019-02-11T09:37:45.043Z,92.40
2019-02-11T09:40:16.499Z,92.60
2019-02-11T09:42:46.031Z,92.70
2019-02-11T09:45:22.115Z,92.60
2019-02-11T09:47:51.674Z,92.70
2019-02-11T09:50:37.678Z,92.60
2019-02-11T09:53:07.641Z,92.80
2019-02-11T09:55:37.149Z,92.80
2019-02-11T09:58:06.562Z,92.80
2019-02-11T10:00:35.996Z,92.80
2019-02-11T10:03:05.798Z,93.00
2019-02-11T10:05:35.229Z,92.90
2019-02-11T10:08:04.725Z,92.70
2019-02-11T10:10:34.214Z,92.70
2019-02-11T10:13:03.640Z,93.20
2019-02-11T10:15:33.074Z,93.00
2019-02-11T10:18:02.493Z,92.90
2019-02-11T10:20:31.975Z,93.00
2019-02-11T10:23:01.402Z,92.70
2019-02-11T10:25:31.987Z,92.60
2019-02-11T10:28:06.090Z,92.60
2019-02-11T10:30:35.687Z,92.20
2019-02-11T10:33:05.126Z,92.30
2019-02-11T10:35:42.138Z,92.50
2019-02-11T10:38:05.873Z,92.50
2019-02-11T10:40:35.406Z,92.50
2019-02-11T10:43:04.901Z,92.60
2019-02-11T10:45:36.631Z,92.80
2019-02-11T10:48:05.695Z,92.60
2019-02-11T10:50:35.196Z,92.50
2019-02-11T10:53:04.666Z,92.70
2019-02-11T10:55:34.060Z,92.80
2019-02-11T10:58:03.499Z,92.50
2019-02-11T11:00:33.347Z,92.40
2019-02-11T11:03:02.847Z,92.50
2019-02-11T11:05:32.458Z,92.20
2019-02-11T11:08:01.900Z,91.70
2019-02-11T11:10:37.424Z,91.80
2019-02-11T11:13:06.915Z,91.90
2019-02-11T11:15:36.353Z,91.40
2019-02-11T11:18:07.005Z,91.70
2019-02-11T11:20:36.454Z,91.30
2019-02-11T11:23:05.874Z,91.50
2019-02-11T11:25:35.304Z,91.60
2019-02-11T11:28:04.796Z,91.40
2019-02-11T11:30:34.479Z,91.20
2019-02-11T11:33:04.209Z,91.20
2019-02-11T11:35:33.642Z,91.40
2019-02-11T11:38:03.080Z,91.40
2019-02-11T11:40:33.094Z,91.40
2019-02-11T11:43:02.529Z,91.40
2019-02-11T11:45:31.976Z,91.40
2019-02-11T11:48:01.396Z,91.50
2019-02-11T11:50:30.833Z,91.60
2019-02-11T11:53:00.258Z,91.70
2019-02-11T11:55:29.709Z,91.60
2019-02-11T11:57:59.201Z,91.80
2019-02-11T12:00:31.694Z,91.90
2019-02-11T12:03:04.016Z,91.80
2019-02-11T12:05:32.353Z,92.20
2019-02-11T12:08:01.746Z,92.10
2019-02-11T12:10:31.186Z,92.10
2019-02-11T12:13:00.605Z,92.10
2019-02-11T12:15:30.036Z,92.00
2019-02-11T12:17:59.478Z,91.80
2019-02-11T12:20:33.032Z,92.10
2019-02-11T12:23:00.114Z,92.10
2019-02-11T12:25:29.523Z,92.20
2019-02-11T12:27:58.977Z,92.30
2019-02-11T12:30:28.569Z,92.50
2019-02-11T12:32:57.999Z,92.70
2019-02-11T12:35:27.422Z,92.60
2019-02-11T12:37:56.882Z,92.40
2019-02-11T12:40:26.304Z,92.20
2019-02-11T12:42:55.765Z,92.50
2019-02-11T12:45:25.940Z,92.60
2019-02-11T12:47:55.365Z,92.80
2019-02-11T12:50:24.780Z,92.80
2019-02-11T12:52:54.230Z,92.50
2019-02-11T12:55:23.654Z,92.80
2019-02-11T12:57:53.147Z,92.80
2019-02-11T13:00:24.278Z,92.90
2019-02-11T13:02:53.783Z,92.90
2019-02-11T13:05:40.292Z,92.90
2019-02-11T13:07:54.341Z,93.10
2019-02-11T13:10:23.871Z,93.00
2019-02-11T13:12:53.316Z,92.90
2019-02-11T13:15:56.803Z,92.90
2019-02-11T13:17:54.066Z,92.90
2019-02-11T13:20:23.578Z,93.00
2019-02-11T13:22:53.276Z,92.90
2019-02-11T13:25:22.709Z,92.90
2019-02-11T13:27:52.268Z,92.80
2019-02-11T13:30:27.449Z,93.10
2019-02-11T13:32:56.910Z,93.00
2019-02-11T13:35:26.317Z,93.20
2019-02-11T13:37:56.357Z,93.30
2019-02-11T13:40:26.153Z,93.10
2019-02-11T13:42:55.578Z,92.90
2019-02-11T13:45:25.025Z,92.80
2019-02-11T13:47:57.935Z,92.60
2019-02-11T13:50:27.448Z,92.60
2019-02-11T13:52:57.393Z,92.80
2019-02-11T13:55:30.678Z,92.60
2019-02-11T13:57:58.571Z,92.40
2019-02-11T14:00:30.069Z,92.10
2019-02-11T14:03:02.393Z,92.00
2019-02-11T14:05:32.461Z,92.20
2019-02-11T14:08:02.721Z,92.00
2019-02-11T14:10:32.554Z,91.70
2019-02-11T14:13:02.178Z,91.60
2019-02-11T14:15:31.681Z,91.60
2019-02-11T14:18:14.362Z,91.60
2019-02-11T14:20:42.631Z,91.40
2019-02-11T14:23:12.086Z,91.40
2019-02-11T14:25:46.487Z,91.40
2019-02-11T14:28:14.057Z,91.20
2019-02-11T14:30:43.485Z,91.20
2019-02-11T14:33:12.955Z,91.20
2019-02-11T14:35:42.402Z,91.00
2019-02-11T14:38:11.834Z,90.80
2019-02-11T14:40:41.282Z,90.60
2019-02-11T14:43:10.746Z,90.40
2019-02-11T14:45:40.275Z,89.90
2019-02-11T14:48:25.861Z,90.00
2019-02-11T14:50:40.866Z,89.70
2019-02-11T14:53:10.315Z,89.00
2019-02-11T14:55:39.773Z,88.50
2019-02-11T14:58:09.221Z,87.70
2019-02-11T15:00:38.700Z,88.40
2019-02-11T15:03:08.142Z,87.70
2019-02-11T15:05:37.610Z,88.40
2019-02-11T15:08:07.048Z,88.90
2019-02-11T15:10:36.473Z,88.80
2019-02-11T15:13:05.950Z,88.50
2019-02-11T15:15:35.380Z,88.50
2019-02-11T15:18:04.859Z,88.10
2019-02-11T15:20:34.277Z,87.40
2019-02-11T15:23:03.739Z,87.00
2019-02-11T15:25:33.168Z,87.00
2019-02-11T15:28:03.603Z,87.40
2019-02-11T15:30:33.080Z,86.80
2019-02-11T15:33:02.586Z,87.10
2019-02-11T15:35:32.040Z,86.90
2019-02-11T15:38:01.479Z,87.70
2019-02-11T15:40:30.938Z,87.30
2019-02-11T15:43:00.433Z,86.80
2019-02-11T15:45:29.861Z,86.90
2019-02-11T15:47:59.336Z,86.50
2019-02-11T15:50:28.773Z,86.80
2019-02-11T15:52:59.084Z,86.60
2019-02-11T15:55:28.932Z,86.00
2019-02-11T15:57:58.401Z,86.00
2019-02-11T16:00:27.817Z,86.40
2019-02-11T16:02:57.280Z,86.30
2019-02-11T16:05:26.725Z,87.00
2019-02-11T16:07:56.192Z,86.20
2019-02-11T16:10:28.122Z,86.00
2019-02-11T16:12:57.676Z,85.90
2019-02-11T16:15:27.087Z,85.50
2019-02-11T16:17:56.552Z,85.30
2019-02-11T16:20:25.993Z,85.20
2019-02-11T16:22:55.464Z,85.20
2019-02-11T16:25:24.927Z,85.30
2019-02-11T16:27:54.395Z,85.20
2019-02-11T16:30:23.841Z,85.50
2019-02-11T16:32:53.312Z,85.70
2019-02-11T16:35:23.104Z,86.00
2019-02-11T16:37:52.504Z,85.80
2019-02-11T16:40:25.581Z,85.60
2019-02-11T16:42:55.005Z,85.30
2019-02-11T16:45:24.595Z,85.40
2019-02-11T16:47:54.117Z,85.60
2019-02-11T16:50:23.510Z,86.60
2019-02-11T16:52:53.066Z,86.00
2019-02-11T16:55:22.488Z,86.30
2019-02-11T16:57:51.958Z,86.40
2019-02-11T17:00:21.845Z,86.40
2019-02-11T17:02:51.309Z,86.20
2019-02-11T17:05:20.805Z,86.20
2019-02-11T17:07:50.274Z,86.30
2019-02-11T17:10:19.769Z,86.30
2019-02-11T17:12:49.237Z,86.40
2019-02-11T17:15:20.363Z,86.50
2019-02-11T17:17:49.888Z,86.40
2019-02-11T17:20:19.374Z,86.40
2019-02-11T17:22:48.834Z,86.90
2019-02-11T17:25:18.335Z,86.50
2019-02-11T17:27:47.837Z,85.60
2019-02-11T17:30:32.864Z,85.00
2019-02-11T17:33:02.451Z,84.90
2019-02-11T17:35:31.886Z,84.60
2019-02-11T17:38:01.340Z,83.00
2019-02-11T17:40:30.765Z,83.10
2019-02-11T17:43:00.230Z,83.10
2019-02-11T17:45:31.849Z,82.70
2019-02-11T17:48:01.315Z,83.00
2019-02-11T17:50:30.736Z,82.90
2019-02-11T17:53:08.263Z,83.30
2019-02-11T17:55:37.682Z,83.10
2019-02-11T17:58:07.296Z,83.20
2019-02-11T18:00:43.059Z,83.60
2019-02-11T18:03:12.566Z,84.00
2019-02-11T18:05:41.981Z,84.00
2019-02-11T18:08:11.482Z,84.30
2019-02-11T18:10:40.977Z,85.20
2019-02-11T18:13:10.440Z,85.90
2019-02-11T18:15:39.923Z,86.00
2019-02-11T18:18:09.357Z,86.10
2019-02-11T18:20:38.777Z,86.60
2019-02-11T18:23:08.333Z,86.70
2019-02-11T18:25:37.752Z,87.10
2019-02-11T18:28:07.224Z,87.60
2019-02-11T18:30:36.663Z,87.60
2019-02-11T18:33:06.224Z,87.20
2019-02-11T18:35:35.660Z,87.00
2019-02-11T18:38:05.149Z,86.40
2019-02-11T18:40:34.592Z,86.20
2019-02-11T18:43:04.108Z,85.60
2019-02-11T18:45:33.546Z,85.90
2019-02-11T18:48:03.128Z,86.00
2019-02-11T18:50:32.550Z,85.90
2019-02-11T18:53:02.019Z,86.30
2019-02-11T18:55:31.469Z,86.50
2019-02-11T18:58:00.923Z,86.60
2019-02-11T19:00:30.382Z,86.80
2019-02-11T19:02:59.832Z,87.20
2019-02-11T19:05:29.301Z,87.20
2019-02-11T19:07:58.785Z,87.80
2019-02-11T19:10:28.399Z,88.40
2019-02-11T19:12:57.873Z,88.40
2019-02-11T19:15:27.290Z,88.90
2019-02-11T19:17:56.754Z,89.10
2019-02-11T19:20:26.194Z,89.20
2019-02-11T19:22:55.659Z,89.10
2019-02-11T19:25:25.086Z,89.60
2019-02-11T19:27:54.543Z,90.10
2019-02-11T19:30:27.018Z,90.20
2019-02-11T19:32:56.481Z,90.50
2019-02-11T19:35:25.909Z,90.60
2019-02-11T19:37:55.391Z,90.80
2019-02-11T19:40:24.817Z,90.80
2019-02-11T19:42:54.531Z,90.70
2019-02-11T19:45:26.853Z,90.80
2019-02-11T19:47:56.319Z,91.00
2019-02-11T19:50:25.761Z,90.90
2019-02-11T19:52:55.228Z,90.90
2019-02-11T19:55:24.651Z,91.00
2019-02-11T19:57:54.196Z,91.00
2019-02-11T20:00:24.373Z,91.10
2019-02-11T20:02:53.884Z,91.00
2019-02-11T20:05:23.287Z,91.10
2019-02-11T20:07:52.753Z,91.10
2019-02-11T20:10:26.284Z,91.10
2019-02-11T20:12:55.757Z,91.30
2019-02-11T20:15:32.443Z,91.30
2019-02-11T20:18:01.930Z,91.10
2019-02-11T20:20:31.377Z,91.00
2019-02-11T20:23:00.872Z,91.10
2019-02-11T20:25:30.345Z,91.00
2019-02-11T20:27:59.820Z,90.90
2019-02-11T20:30:31.143Z,91.00
2019-02-11T20:33:00.613Z,91.10
2019-02-11T20:35:30.112Z,91.20
2019-02-11T20:37:59.586Z,91.10
2019-02-11T20:40:30.245Z,91.10
2019-02-11T20:42:59.707Z,90.70
2019-02-11T20:45:31.843Z,90.80
2019-02-11T20:48:01.323Z,90.70
2019-02-11T20:50:30.761Z,90.80
2019-02-11T20:53:00.266Z,91.00
2019-02-11T20:55:29.718Z,91.10
2019-02-11T20:58:00.806Z,91.40
2019-02-11T21:00:30.237Z,91.30
2019-02-11T21:03:07.895Z,91.30
2019-02-11T21:05:30.829Z,91.10
2019-02-11T21:08:00.296Z,91.00
2019-02-11T21:10:29.717Z,91.10
2019-02-11T21:12:59.183Z,91.10
2019-02-11T21:15:28.627Z,91.00
2019-02-11T21:17:58.076Z,90.80
2019-02-11T21:20:34.489Z,90.60
2019-02-11T21:23:04.688Z,90.40
2019-02-11T21:25:34.115Z,90.30
2019-02-11T21:28:03.589Z,90.50
2019-02-11T21:30:33.081Z,91.10
2019-02-11T21:33:02.559Z,91.60
2019-02-11T21:35:31.981Z,91.80
2019-02-11T21:38:01.456Z,91.90
2019-02-11T21:40:30.876Z,92.10
2019-02-11T21:43:00.351Z,92.20
2019-02-11T21:45:29.802Z,92.20
2019-02-11T21:47:59.259Z,92.00
2019-02-11T21:50:28.673Z,91.90
2019-02-11T21:52:58.108Z,91.40
2019-02-11T21:55:27.564Z,91.10
2019-02-11T21:57:56.987Z,90.80
2019-02-11T22:00:26.452Z,90.70
2019-02-11T22:02:55.885Z,90.90
2019-02-11T22:05:25.335Z,90.90
2019-02-11T22:07:54.760Z,91.20
2019-02-11T22:10:24.657Z,90.40
2019-02-11T22:12:54.073Z,89.60
2019-02-11T22:15:23.514Z,90.00
2019-02-11T22:17:52.958Z,89.90
2019-02-11T22:20:23.140Z,89.80
2019-02-11T22:22:52.638Z,89.40
2019-02-11T22:25:22.081Z,89.60
2019-02-11T22:27:51.511Z,89.90
2019-02-11T22:30:25.181Z,90.10
2019-02-11T22:32:54.652Z,90.30
2019-02-11T22:35:24.088Z,90.40
2019-02-11T22:37:53.519Z,90.70
2019-02-11T22:40:22.966Z,90.80
2019-02-11T22:42:52.384Z,91.00
2019-02-11T22:45:29.023Z,91.20
2019-02-11T22:47:58.438Z,91.30
2019-02-11T22:50:27.869Z,91.40
2019-02-11T22:52:57.295Z,91.40
2019-02-11T22:55:26.733Z,91.40
2019-02-11T22:57:56.151Z,91.40
2019-02-11T23:00:45.966Z,91.30
2019-02-11T23:03:15.560Z,91.20
2019-02-11T23:05:45.214Z,91.20
2019-02-11T23:08:14.721Z,91.00
2019-02-11T23:10:44.233Z,90.90
2019-02-11T23:13:13.665Z,91.00
2019-02-11T23:15:43.098Z,91.40
2019-02-11T23:18:12.509Z,91.60
2019-02-11T23:20:41.951Z,91.20
2019-02-11T23:23:11.383Z,91.20
2019-02-11T23:25:40.830Z,91.30
2019-02-11T23:28:10.268Z,91.40
2019-02-11T23:30:39.715Z,91.40
2019-02-11T23:33:09.128Z,91.50
2019-02-11T23:35:38.600Z,91.70
2019-02-11T23:38:08.039Z,91.80
2019-02-11T23:40:37.481Z,91.80
2019-02-11T23:43:06.912Z,91.90
2019-02-11T23:45:36.376Z,91.80
2019-02-11T23:48:05.812Z,91.70
2019-02-11T23:50:35.271Z,91.60
2019-02-11T23:53:04.698Z,91.50
2019-02-11T23:55:34.137Z,91.50
2019-02-11T23:58:03.558Z,91.50
